Fort Hood, Texas
Current Conditions -  °F | °C
As of 9:56 PM on Sunday 23 Nov 2014 (Local Time) from KHLR Reporting Station
Clear Clear  
Wind Chill: 60°   Ceiling: Unl
Heat Index: 60°   Visibility: 10mi
Dew Point: 39°   Wind: 17mph
Humidity: 46%   Direction: 320°NW
Pressure: 29.8"   Gusts: 30mph
Location:  31.2151°N, 97.7405°W
Report Text: KHLR 240356Z AUTO 32015G26KT 10SM CLR 16/04 A2980 RMK AO2 PK WND 32029/0311 PRESRR SLP117 T01560039 $
Loading
Personal Weather Stations






























Interactive Weather Map New forecast layout! Learn more

10-Day Weather Forecast

Advertisements
Track Severe Weather on mobile